Time;durP1;ratioP1;P1;durP2;ratioP2;P2;SDS_P1;SDS_P2;PMS_P1;PMS_P2;Temp;Humidity;BMP_temperature;BMP_pressure;BME280_temperature;BME280_humidity;BME280_pressure;Samples;Min_cycle;Max_cycle;Signal;HPM_P1;HPM_P2
2021/11/08 00:01:13;;;;;;;4.75;2.47;;;;;;;;;;5032259;28;20247;-88
2021/11/08 00:03:46;;;;;;;9.75;2.45;;;;;;;;;;5046517;28;20228;-84
2021/11/08 00:06:14;;;;;;;5.50;2.55;;;;;;;;;;5060674;28;20197;-87
2021/11/08 00:08:41;;;;;;;4.30;2.47;;;;;;;;;;5049302;28;20225;-87
2021/11/08 00:11:08;;;;;;;7.63;3.05;;;;;;;;;;5056996;28;20237;-85
2021/11/08 00:13:37;;;;;;;3.90;2.40;;;;;;;;;;5050384;28;20215;-88
2021/11/08 00:16:12;;;;;;;7.88;2.17;;;;;;;;;;5042616;28;20275;-85
2021/11/08 00:18:44;;;;;;;4.68;2.20;;;;;;;;;;5041667;28;20191;-86
2021/11/08 00:21:13;;;;;;;5.63;3.45;;;;;;;;;;5056753;28;20186;-87
2021/11/08 00:23:40;;;;;;;5.25;2.70;;;;;;;;;;5053061;28;20199;-82
2021/11/08 00:26:07;;;;;;;9.73;2.50;;;;;;;;;;5048826;28;20214;-79
2021/11/08 00:28:34;;;;;;;5.55;2.00;;;;;;;;;;5060631;28;20191;-79
2021/11/08 00:31:04;;;;;;;12.00;2.67;;;;;;;;;;5054721;28;20195;-79
2021/11/08 00:33:31;;;;;;;7.93;3.05;;;;;;;;;;5043961;28;20218;-80
2021/11/08 00:36:01;;;;;;;8.45;2.92;;;;;;;;;;5050850;28;20194;-79
2021/11/08 00:38:31;;;;;;;6.63;2.60;;;;;;;;;;5052362;28;20199;-85
2021/11/08 00:40:58;;;;;;;11.43;3.35;;;;;;;;;;5043972;28;20194;-84
2021/11/08 00:43:26;;;;;;;9.93;4.03;;;;;;;;;;5047503;28;20195;-84
2021/11/08 00:45:53;;;;;;;6.18;2.85;;;;;;;;;;5050297;28;20195;-84
2021/11/08 00:48:22;;;;;;;7.63;3.33;;;;;;;;;;5047964;28;20210;-86
2021/11/08 00:50:50;;;;;;;11.73;3.70;;;;;;;;;;5050077;28;20190;-86
2021/11/08 00:53:17;;;;;;;7.75;2.90;;;;;;;;;;5061320;28;20557;-85
2021/11/08 00:55:46;;;;;;;10.27;3.20;;;;;;;;;;5053320;28;20569;-85
2021/11/08 00:58:18;;;;;;;8.80;4.05;;;;;;;;;;5047895;28;20557;-82
2021/11/08 01:00:45;;;;;;;8.57;3.45;;;;;;;;;;5044621;28;20275;-82
2021/11/08 01:03:16;;;;;;;7.57;3.17;;;;;;;;;;5040918;28;20191;-82
2021/11/08 01:05:43;;;;;;;7.55;2.60;;;;;;;;;;5050355;28;20564;-82
2021/11/08 01:08:10;;;;;;;6.35;3.25;;;;;;;;;;5055521;28;20545;-82
2021/11/08 01:10:37;;;;;;;7.63;3.10;;;;;;;;;;5043459;28;20559;-82
2021/11/08 01:13:06;;;;;;;4.57;2.95;;;;;;;;;;5055625;28;20211;-82
2021/11/08 01:15:33;;;;;;;6.95;2.60;;;;;;;;;;5050325;28;20191;-80
2021/11/08 01:18:00;;;;;;;9.07;3.55;;;;;;;;;;5046349;28;20222;-80
2021/11/08 01:20:32;;;;;;;5.85;2.75;;;;;;;;;;5058622;28;20201;-81
2021/11/08 01:22:59;;;;;;;6.47;3.67;;;;;;;;;;5053558;28;20191;-80
2021/11/08 01:25:26;;;;;;;8.60;3.35;;;;;;;;;;5046983;28;20191;-80
2021/11/08 01:27:56;;;;;;;10.02;3.65;;;;;;;;;;5050286;28;20260;-80
2021/11/08 01:30:26;;;;;;;5.85;3.35;;;;;;;;;;5053221;28;20395;-80
2021/11/08 01:32:56;;;;;;;7.10;3.10;;;;;;;;;;5045981;28;20634;-89
2021/11/08 01:35:30;;;;;;;11.43;3.30;;;;;;;;;;5052960;28;20613;-90
2021/11/08 01:38:04;;;;;;;6.78;3.08;;;;;;;;;;5069404;28;20260;-85
2021/11/08 01:40:31;;;;;;;8.45;2.90;;;;;;;;;;5060345;28;20190;-85
2021/11/08 01:42:58;;;;;;;5.05;2.78;;;;;;;;;;5061218;28;20199;-85
2021/11/08 01:45:26;;;;;;;4.97;2.85;;;;;;;;;;5057807;28;20288;-84
2021/11/08 01:47:54;;;;;;;7.30;3.03;;;;;;;;;;5057622;28;20638;-84
2021/11/08 01:50:21;;;;;;;7.93;3.53;;;;;;;;;;5050231;28;20210;-85
2021/11/08 01:52:49;;;;;;;7.28;3.70;;;;;;;;;;5068486;28;20202;-84
2021/11/08 01:55:16;;;;;;;5.20;3.10;;;;;;;;;;5064331;28;20577;-85
2021/11/08 01:57:44;;;;;;;9.45;4.00;;;;;;;;;;5059556;28;20191;-85
2021/11/08 02:00:13;;;;;;;6.35;2.75;;;;;;;;;;5038201;28;20227;-84
2021/11/08 02:02:42;;;;;;;11.95;3.33;;;;;;;;;;5055927;28;20238;-86
2021/11/08 02:05:10;;;;;;;8.63;2.92;;;;;;;;;;5055172;28;20206;-86
2021/11/08 02:07:37;;;;;;;7.63;3.58;;;;;;;;;;5054218;28;20195;-84
2021/11/08 02:10:05;;;;;;;13.32;3.17;;;;;;;;;;5058166;28;20217;-86
2021/11/08 02:12:33;;;;;;;8.75;3.35;;;;;;;;;;5061549;28;20194;-81
2021/11/08 02:15:00;;;;;;;6.68;3.33;;;;;;;;;;5068246;28;20266;-82
2021/11/08 02:17:27;;;;;;;7.78;3.58;;;;;;;;;;5053437;28;20195;-82
2021/11/08 02:19:57;;;;;;;7.95;3.85;;;;;;;;;;5058235;28;20556;-82
2021/11/08 02:22:25;;;;;;;6.97;3.38;;;;;;;;;;5055378;28;20209;-81
2021/11/08 02:24:53;;;;;;;8.25;3.60;;;;;;;;;;5065335;28;20194;-81
2021/11/08 02:27:21;;;;;;;7.60;2.78;;;;;;;;;;5058531;28;20530;-84
2021/11/08 02:29:51;;;;;;;6.22;2.97;;;;;;;;;;5059205;28;20186;-83
2021/11/08 02:32:18;;;;;;;5.95;2.75;;;;;;;;;;5061059;28;20190;-83
2021/11/08 02:34:45;;;;;;;8.82;3.13;;;;;;;;;;5059465;28;20214;-82
2021/11/08 02:37:14;;;;;;;8.40;3.05;;;;;;;;;;5068014;28;20194;-86
2021/11/08 02:39:44;;;;;;;6.72;2.47;;;;;;;;;;5058042;28;20727;-90
2021/11/08 02:42:12;;;;;;;6.85;3.20;;;;;;;;;;5051932;28;20283;-87
2021/11/08 02:44:39;;;;;;;6.05;2.88;;;;;;;;;;5055078;28;20199;-84
2021/11/08 02:47:06;;;;;;;7.13;3.38;;;;;;;;;;5044083;28;20201;-87
2021/11/08 02:49:38;;;;;;;11.20;5.15;;;;;;;;;;5043577;28;20213;-85
2021/11/08 02:52:08;;;;;;;3.90;2.30;;;;;;;;;;5046486;28;20197;-85
2021/11/08 02:54:38;;;;;;;8.25;2.55;;;;;;;;;;5052487;28;20219;-87
2021/11/08 02:57:06;;;;;;;6.60;3.70;;;;;;;;;;5038643;28;20219;-84
2021/11/08 02:59:35;;;;;;;7.85;3.10;;;;;;;;;;5047837;28;20234;-90
2021/11/08 03:02:03;;;;;;;11.57;3.33;;;;;;;;;;5046592;28;20195;-88
2021/11/08 03:04:33;;;;;;;5.50;2.25;;;;;;;;;;5051130;28;20195;-88
2021/11/08 03:07:01;;;;;;;6.22;3.10;;;;;;;;;;5049211;28;20215;-86
2021/11/08 03:09:31;;;;;;;7.40;3.15;;;;;;;;;;5050732;28;20217;-87
2021/11/08 03:12:02;;;;;;;6.22;2.83;;;;;;;;;;5050658;28;20202;-86
2021/11/08 03:14:32;;;;;;;6.10;3.00;;;;;;;;;;5051711;28;20250;-87
2021/11/08 03:17:00;;;;;;;8.10;3.05;;;;;;;;;;5044084;28;20676;-87
2021/11/08 03:19:31;;;;;;;7.53;3.60;;;;;;;;;;5050845;28;20187;-90
2021/11/08 03:22:01;;;;;;;5.95;2.97;;;;;;;;;;5056624;28;20210;-86
2021/11/08 03:24:38;;;;;;;6.45;3.05;;;;;;;;;;5056609;28;20203;-89
2021/11/08 03:27:09;;;;;;;9.23;3.85;;;;;;;;;;5052623;28;20222;-90
2021/11/08 03:29:37;;;;;;;5.40;2.78;;;;;;;;;;5061915;28;20198;-90
2021/11/08 03:32:05;;;;;;;3.45;2.80;;;;;;;;;;5049336;28;20194;-91
2021/11/08 03:34:34;;;;;;;5.07;3.10;;;;;;;;;;5053889;28;20223;-91
2021/11/08 03:37:01;;;;;;;6.32;3.30;;;;;;;;;;5061576;28;20194;-88
2021/11/08 03:39:28;;;;;;;6.40;3.15;;;;;;;;;;5054326;28;20195;-88
2021/11/08 03:41:55;;;;;;;6.40;2.63;;;;;;;;;;5065690;28;20190;-83
2021/11/08 03:44:23;;;;;;;9.77;3.22;;;;;;;;;;5052790;28;20199;-88
2021/11/08 03:46:50;;;;;;;5.78;3.08;;;;;;;;;;5060352;28;20205;-86
2021/11/08 03:49:17;;;;;;;5.55;3.00;;;;;;;;;;5051503;28;20191;-88
2021/11/08 03:51:44;;;;;;;6.03;2.95;;;;;;;;;;5053106;28;20198;-85
2021/11/08 03:54:12;;;;;;;5.75;2.70;;;;;;;;;;5052774;28;20612;-87
2021/11/08 03:56:39;;;;;;;4.75;2.70;;;;;;;;;;5049095;28;20667;-85
2021/11/08 03:59:06;;;;;;;7.88;2.90;;;;;;;;;;5063195;28;20269;-86
2021/11/08 04:01:36;;;;;;;6.03;3.45;;;;;;;;;;5057615;28;20203;-85
2021/11/08 04:04:03;;;;;;;6.25;3.03;;;;;;;;;;5051463;28;20191;-82
2021/11/08 04:06:31;;;;;;;6.95;3.50;;;;;;;;;;5060326;28;20203;-87
2021/11/08 04:08:59;;;;;;;6.53;2.90;;;;;;;;;;5052953;28;20197;-88
2021/11/08 04:11:26;;;;;;;4.47;2.30;;;;;;;;;;5049136;28;20195;-87
2021/11/08 04:13:56;;;;;;;6.53;2.95;;;;;;;;;;5049112;28;20242;-85
2021/11/08 04:16:24;;;;;;;5.40;3.35;;;;;;;;;;5058383;28;20743;-85
2021/11/08 04:18:55;;;;;;;7.95;3.20;;;;;;;;;;5063475;28;20248;-82
2021/11/08 04:21:23;;;;;;;7.00;2.50;;;;;;;;;;5061613;28;20194;-85
2021/11/08 04:23:50;;;;;;;4.78;2.88;;;;;;;;;;5054755;28;20206;-89
2021/11/08 04:26:19;;;;;;;7.82;3.47;;;;;;;;;;5057946;28;20212;-84
2021/11/08 04:28:52;;;;;;;5.45;2.60;;;;;;;;;;5058393;28;20321;-85
2021/11/08 04:31:19;;;;;;;6.55;2.78;;;;;;;;;;5052731;28;20206;-89
2021/11/08 04:33:48;;;;;;;4.40;2.60;;;;;;;;;;5047421;28;20225;-90
2021/11/08 04:39:24;;;;;;;8.93;3.45;;;;;;;;;;5060912;28;20231;-83
2021/11/08 04:41:57;;;;;;;3.83;2.78;;;;;;;;;;5050016;28;20252;-81
2021/11/08 04:44:59;;;;;;;9.15;3.25;;;;;;;;;;5051014;28;20293;-82
2021/11/08 04:47:47;;;;;;;7.80;3.80;;;;;;;;;;5044106;28;20199;-83
2021/11/08 04:50:22;;;;;;;6.47;2.85;;;;;;;;;;5050643;28;20198;-89
2021/11/08 05:23:31;;;;;;;6.80;3.17;;;;;;;;;;5051476;28;20213;-86
2021/11/08 05:29:53;;;;;;;5.53;3.20;;;;;;;;;;5057902;28;20245;-84
2021/11/08 05:31:32;;;;;;;7.85;3.40;;;;;;;;;;5055785;28;20264;-91
2021/11/08 05:33:59;;;;;;;11.35;3.45;;;;;;;;;;5060694;28;20222;-89
2021/11/08 05:36:26;;;;;;;6.13;3.33;;;;;;;;;;5069249;28;20213;-92
2021/11/08 05:38:53;;;;;;;11.68;3.80;;;;;;;;;;5054863;28;20199;-91
2021/11/08 05:41:22;;;;;;;7.85;3.80;;;;;;;;;;5054413;28;20217;-88
2021/11/08 05:43:49;;;;;;;6.28;3.13;;;;;;;;;;5056321;28;20225;-87
2021/11/08 05:46:19;;;;;;;8.98;4.38;;;;;;;;;;5063393;28;20190;-90
2021/11/08 05:48:46;;;;;;;8.43;3.80;;;;;;;;;;5054353;28;20707;-89
2021/11/08 05:51:14;;;;;;;6.15;3.63;;;;;;;;;;5055753;28;20194;-89
2021/11/08 05:53:43;;;;;;;6.05;3.95;;;;;;;;;;5056030;28;20190;-90
2021/11/08 05:56:16;;;;;;;8.15;4.20;;;;;;;;;;5055006;28;20198;-89
2021/11/08 05:59:05;;;;;;;15.80;4.60;;;;;;;;;;5062571;28;20198;-90
2021/11/08 06:13:00;;;;;;;7.63;4.47;;;;;;;;;;5044925;28;20188;-91
2021/11/08 06:51:23;;;;;;;7.63;4.25;;;;;;;;;;5055104;28;20336;-83
2021/11/08 06:53:54;;;;;;;12.23;4.25;;;;;;;;;;5051867;28;20201;-83
2021/11/08 06:56:26;;;;;;;7.05;3.72;;;;;;;;;;5051152;28;20260;-83
2021/11/08 06:58:53;;;;;;;9.98;4.43;;;;;;;;;;5052402;28;20207;-82
2021/11/08 07:01:22;;;;;;;8.23;4.43;;;;;;;;;;5057883;28;20214;-83
2021/11/08 07:03:50;;;;;;;12.63;5.07;;;;;;;;;;5045073;28;20198;-82
2021/11/08 07:06:17;;;;;;;12.50;5.68;;;;;;;;;;5053880;28;20183;-82
2021/11/08 07:08:44;;;;;;;14.15;5.80;;;;;;;;;;5053114;28;20574;-82
2021/11/08 07:11:11;;;;;;;6.45;4.65;;;;;;;;;;5061261;28;20657;-86
2021/11/08 07:13:38;;;;;;;10.10;5.63;;;;;;;;;;5071768;28;20260;-81
2021/11/08 07:16:06;;;;;;;5.40;4.40;;;;;;;;;;5057689;28;20211;-81
2021/11/08 07:18:33;;;;;;;10.90;6.07;;;;;;;;;;5049893;28;20198;-80
2021/11/08 07:21:01;;;;;;;8.68;4.60;;;;;;;;;;5050352;28;20585;-80
2021/11/08 07:23:28;;;;;;;13.60;5.22;;;;;;;;;;5055955;28;20202;-81
2021/11/08 07:25:55;;;;;;;7.07;4.80;;;;;;;;;;5058948;28;20195;-80
2021/11/08 07:28:22;;;;;;;7.95;4.03;;;;;;;;;;5047467;28;20203;-84
2021/11/08 07:30:49;;;;;;;10.68;4.88;;;;;;;;;;5054949;28;20202;-82
2021/11/08 07:33:17;;;;;;;7.65;4.68;;;;;;;;;;5048282;28;20206;-81
2021/11/08 07:35:45;;;;;;;9.05;4.72;;;;;;;;;;5049499;28;20272;-81
2021/11/08 07:38:13;;;;;;;6.95;4.65;;;;;;;;;;5057614;28;20201;-84
2021/11/08 07:40:40;;;;;;;9.13;4.78;;;;;;;;;;5052997;28;20676;-82
2021/11/08 07:43:07;;;;;;;9.88;6.00;;;;;;;;;;5053216;28;20199;-81
2021/11/08 07:45:34;;;;;;;12.32;5.70;;;;;;;;;;5049529;28;20190;-80
2021/11/08 07:48:03;;;;;;;12.52;4.75;;;;;;;;;;5046736;28;20217;-82
2021/11/08 07:50:31;;;;;;;6.93;4.50;;;;;;;;;;5050460;28;20191;-81
2021/11/08 07:52:58;;;;;;;10.63;5.68;;;;;;;;;;5056388;28;20199;-83
2021/11/08 07:55:26;;;;;;;12.88;5.65;;;;;;;;;;5051049;28;20233;-80
2021/11/08 07:57:53;;;;;;;7.38;4.30;;;;;;;;;;5046434;28;20197;-82
2021/11/08 08:00:20;;;;;;;9.25;4.53;;;;;;;;;;5044315;28;20236;-81
2021/11/08 08:02:49;;;;;;;10.90;5.80;;;;;;;;;;5049239;28;20514;-80
2021/11/08 08:05:17;;;;;;;11.02;6.28;;;;;;;;;;5050120;28;20195;-81
2021/11/08 08:07:45;;;;;;;13.80;6.22;;;;;;;;;;5051997;28;20187;-82
2021/11/08 08:10:12;;;;;;;20.25;11.18;;;;;;;;;;5049792;28;20203;-80
2021/11/08 08:12:40;;;;;;;19.95;8.48;;;;;;;;;;5047649;28;20199;-80
2021/11/08 08:15:07;;;;;;;16.48;7.57;;;;;;;;;;5049569;28;20222;-83
2021/11/08 08:17:36;;;;;;;17.98;8.20;;;;;;;;;;5049433;28;20558;-82
2021/11/08 08:20:05;;;;;;;12.90;6.88;;;;;;;;;;5050723;28;20240;-82
2021/11/08 08:22:32;;;;;;;14.55;8.20;;;;;;;;;;5050617;28;20282;-84
2021/11/08 08:24:59;;;;;;;11.10;7.18;;;;;;;;;;5051783;28;20210;-83
2021/11/08 08:27:26;;;;;;;19.48;7.97;;;;;;;;;;5042050;28;20720;-81
2021/11/08 08:29:54;;;;;;;15.43;7.35;;;;;;;;;;5049540;28;20195;-81
2021/11/08 08:32:21;;;;;;;14.10;6.68;;;;;;;;;;5039976;28;20536;-83
2021/11/08 08:34:49;;;;;;;10.02;6.30;;;;;;;;;;5037191;28;20708;-84
2021/11/08 08:37:17;;;;;;;11.00;6.68;;;;;;;;;;5050654;28;20191;-85
2021/11/08 08:39:44;;;;;;;11.88;5.97;;;;;;;;;;5048899;28;20194;-85
2021/11/08 08:42:11;;;;;;;10.35;5.93;;;;;;;;;;5049203;28;20561;-82
2021/11/08 08:44:38;;;;;;;14.68;7.25;;;;;;;;;;5050886;28;20194;-82
2021/11/08 08:47:07;;;;;;;9.73;7.40;;;;;;;;;;5048660;28;20222;-81
2021/11/08 08:49:35;;;;;;;12.57;6.47;;;;;;;;;;5050190;28;20202;-81
2021/11/08 08:52:02;;;;;;;10.05;4.80;;;;;;;;;;5051021;28;20198;-83
2021/11/08 08:54:29;;;;;;;8.95;5.00;;;;;;;;;;5051406;28;20676;-81
2021/11/08 08:56:56;;;;;;;16.80;5.65;;;;;;;;;;5051805;28;20661;-85
2021/11/08 08:59:23;;;;;;;13.18;5.05;;;;;;;;;;5037321;28;20227;-81
2021/11/08 09:01:53;;;;;;;12.88;7.30;;;;;;;;;;5047739;28;20207;-79
2021/11/08 09:04:21;;;;;;;22.20;7.55;;;;;;;;;;5057745;28;20201;-80
2021/11/08 09:06:48;;;;;;;13.57;6.30;;;;;;;;;;5056002;28;20927;-80
2021/11/08 09:09:16;;;;;;;16.80;6.95;;;;;;;;;;5052016;28;20206;-81
2021/11/08 09:11:43;;;;;;;24.45;8.00;;;;;;;;;;5047521;28;20670;-81
2021/11/08 09:14:10;;;;;;;12.48;6.78;;;;;;;;;;5049741;28;20206;-79
2021/11/08 09:16:37;;;;;;;14.07;7.60;;;;;;;;;;5048439;28;20219;-80
2021/11/08 09:19:04;;;;;;;17.85;6.13;;;;;;;;;;5035067;28;20211;-80
2021/11/08 09:21:33;;;;;;;10.57;5.43;;;;;;;;;;5045164;28;20198;-81
2021/11/08 09:24:01;;;;;;;11.18;6.60;;;;;;;;;;5053477;28;20191;-80
2021/11/08 09:26:30;;;;;;;10.65;5.55;;;;;;;;;;5057067;28;20561;-79
2021/11/08 09:28:57;;;;;;;14.10;5.40;;;;;;;;;;5055996;28;20186;-81
2021/11/08 09:31:24;;;;;;;10.70;5.90;;;;;;;;;;5050537;28;20195;-80
2021/11/08 09:33:53;;;;;;;10.70;5.38;;;;;;;;;;5054016;28;20558;-80
2021/11/08 09:36:20;;;;;;;13.20;5.53;;;;;;;;;;5066176;28;20210;-80
2021/11/08 09:38:51;;;;;;;11.15;4.93;;;;;;;;;;5068077;28;20191;-81
2021/11/08 09:41:19;;;;;;;7.85;5.50;;;;;;;;;;5052662;28;20199;-80
2021/11/08 09:43:47;;;;;;;12.63;5.35;;;;;;;;;;5054531;28;20219;-80
2021/11/08 09:46:14;;;;;;;7.03;4.60;;;;;;;;;;5051791;28;20195;-79
2021/11/08 09:48:42;;;;;;;9.98;4.53;;;;;;;;;;5050583;28;20202;-80
2021/11/08 09:51:10;;;;;;;13.98;4.75;;;;;;;;;;5051366;28;20205;-83
2021/11/08 09:53:37;;;;;;;9.98;4.35;;;;;;;;;;5054249;28;20191;-82
2021/11/08 09:56:06;;;;;;;12.45;3.90;;;;;;;;;;5045494;28;20218;-80
2021/11/08 09:58:34;;;;;;;8.93;4.60;;;;;;;;;;5055284;28;20301;-82
2021/11/08 10:01:05;;;;;;;10.52;4.38;;;;;;;;;;5050567;28;20757;-82
2021/11/08 10:03:33;;;;;;;12.93;4.65;;;;;;;;;;5059132;28;20214;-80
2021/11/08 10:06:01;;;;;;;10.05;5.28;;;;;;;;;;5046798;28;20199;-80
2021/11/08 10:08:29;;;;;;;11.65;5.03;;;;;;;;;;5050188;28;20195;-80
2021/11/08 10:10:57;;;;;;;9.90;4.78;;;;;;;;;;5052187;28;20187;-80
2021/11/08 10:13:27;;;;;;;6.43;4.25;;;;;;;;;;5054160;28;20202;-80
2021/11/08 10:15:56;;;;;;;10.63;4.50;;;;;;;;;;5062840;28;20225;-79
2021/11/08 10:18:23;;;;;;;9.15;3.78;;;;;;;;;;5052610;28;20691;-83
2021/11/08 10:20:51;;;;;;;9.00;4.03;;;;;;;;;;5051066;28;20277;-80
2021/11/08 10:23:19;;;;;;;11.43;4.43;;;;;;;;;;5051266;28;20195;-80
2021/11/08 10:25:47;;;;;;;7.25;4.07;;;;;;;;;;5051354;28;20198;-79
2021/11/08 10:28:16;;;;;;;7.90;3.65;;;;;;;;;;5051811;28;20195;-79
2021/11/08 10:30:45;;;;;;;9.15;3.60;;;;;;;;;;5044272;28;20205;-83
2021/11/08 10:33:14;;;;;;;5.40;4.57;;;;;;;;;;5054003;28;20190;-76
2021/11/08 10:35:43;;;;;;;9.25;4.15;;;;;;;;;;5058277;28;20221;-80
2021/11/08 10:38:11;;;;;;;9.50;4.55;;;;;;;;;;5038268;28;20222;-79
2021/11/08 10:40:45;;;;;;;8.93;4.00;;;;;;;;;;5051200;28;20206;-82
2021/11/08 10:43:13;;;;;;;9.13;4.43;;;;;;;;;;5054355;28;20694;-82
2021/11/08 10:45:52;;;;;;;12.18;4.97;;;;;;;;;;5050382;28;20205;-81
2021/11/08 10:48:23;;;;;;;7.40;3.45;;;;;;;;;;5048657;28;20198;-82
2021/11/08 10:50:50;;;;;;;9.20;3.97;;;;;;;;;;5051889;28;20187;-83
2021/11/08 10:53:18;;;;;;;7.13;3.78;;;;;;;;;;5052770;28;20211;-81
2021/11/08 10:55:49;;;;;;;5.70;3.70;;;;;;;;;;5051492;28;20307;-81
2021/11/08 10:58:19;;;;;;;10.32;4.35;;;;;;;;;;5051394;28;20203;-85
2021/11/08 11:00:50;;;;;;;9.00;4.57;;;;;;;;;;5049738;28;20257;-83
2021/11/08 11:03:20;;;;;;;7.40;4.10;;;;;;;;;;5048839;28;21700;-84
2021/11/08 11:05:47;;;;;;;7.93;3.88;;;;;;;;;;5051733;28;20191;-85
2021/11/08 11:08:15;;;;;;;9.27;4.25;;;;;;;;;;5052699;28;20205;-83
2021/11/08 11:10:52;;;;;;;8.45;4.13;;;;;;;;;;5051626;28;20199;-87
2021/11/08 11:13:20;;;;;;;10.30;4.60;;;;;;;;;;5051276;28;20561;-84
2021/11/08 11:15:49;;;;;;;11.35;4.10;;;;;;;;;;5046305;28;20215;-84
2021/11/08 11:18:17;;;;;;;5.93;4.25;;;;;;;;;;5051141;28;20547;-81
2021/11/08 11:20:48;;;;;;;13.80;3.95;;;;;;;;;;5054981;28;20221;-83
2021/11/08 11:23:21;;;;;;;12.77;4.60;;;;;;;;;;5052963;28;20565;-85
2021/11/08 11:25:52;;;;;;;7.00;5.00;;;;;;;;;;5059830;28;20198;-86
2021/11/08 11:28:24;;;;;;;7.30;4.90;;;;;;;;;;5063755;28;20186;-83
2021/11/08 11:30:51;;;;;;;10.15;4.25;;;;;;;;;;5052165;28;20281;-83
2021/11/08 11:33:19;;;;;;;8.77;4.30;;;;;;;;;;5049782;28;20214;-85
2021/11/08 11:35:49;;;;;;;9.98;4.13;;;;;;;;;;5053119;28;20203;-86
2021/11/08 11:38:17;;;;;;;5.55;3.05;;;;;;;;;;5049506;28;20225;-80
2021/11/08 11:40:46;;;;;;;8.23;4.50;;;;;;;;;;5043892;28;20191;-81
2021/11/08 11:43:15;;;;;;;13.88;3.35;;;;;;;;;;5051622;28;20650;-80
2021/11/08 11:45:46;;;;;;;10.75;4.20;;;;;;;;;;5047207;28;20203;-80
2021/11/08 11:48:13;;;;;;;7.65;3.78;;;;;;;;;;5049919;28;20210;-80
2021/11/08 11:50:40;;;;;;;6.20;3.90;;;;;;;;;;5048192;28;20207;-80
2021/11/08 11:53:09;;;;;;;7.82;3.78;;;;;;;;;;5051257;28;20206;-82
2021/11/08 11:55:38;;;;;;;9.98;3.85;;;;;;;;;;5059027;28;20213;-81
2021/11/08 11:58:06;;;;;;;10.90;4.47;;;;;;;;;;5050096;28;20309;-81
2021/11/08 12:00:34;;;;;;;7.43;3.33;;;;;;;;;;5060439;28;20614;-82
2021/11/08 12:03:02;;;;;;;8.15;4.18;;;;;;;;;;5051377;28;20195;-82
2021/11/08 12:05:30;;;;;;;6.47;3.92;;;;;;;;;;5050409;28;20569;-81
2021/11/08 12:07:58;;;;;;;7.32;4.28;;;;;;;;;;5053880;28;20198;-81
2021/11/08 12:10:26;;;;;;;10.50;4.18;;;;;;;;;;5033142;28;20201;-81
2021/11/08 12:12:53;;;;;;;6.15;3.53;;;;;;;;;;5052583;28;20198;-81
2021/11/08 12:15:26;;;;;;;14.38;4.25;;;;;;;;;;5048917;28;20195;-83
2021/11/08 12:17:54;;;;;;;7.38;3.15;;;;;;;;;;5044891;28;20219;-82
2021/11/08 12:20:25;;;;;;;7.97;3.53;;;;;;;;;;5050883;28;20191;-83
2021/11/08 12:22:52;;;;;;;10.27;4.35;;;;;;;;;;5049173;28;20282;-84
2021/11/08 12:25:20;;;;;;;7.57;3.97;;;;;;;;;;5043969;28;20195;-81
2021/11/08 12:27:50;;;;;;;7.82;4.25;;;;;;;;;;5046311;28;20653;-82
2021/11/08 12:30:18;;;;;;;9.52;3.33;;;;;;;;;;5046574;28;20562;-83
2021/11/08 12:32:46;;;;;;;7.03;4.13;;;;;;;;;;5045505;28;20674;-80
2021/11/08 12:35:17;;;;;;;11.63;4.15;;;;;;;;;;5051430;28;20213;-80
2021/11/08 12:37:46;;;;;;;8.35;4.30;;;;;;;;;;5055814;28;20227;-83
2021/11/08 12:40:13;;;;;;;10.95;5.22;;;;;;;;;;5045974;28;20203;-81
2021/11/08 12:42:42;;;;;;;9.73;3.55;;;;;;;;;;5050256;28;20194;-82
2021/11/08 12:45:13;;;;;;;7.95;3.50;;;;;;;;;;5049932;28;20194;-80
2021/11/08 12:47:40;;;;;;;4.35;2.40;;;;;;;;;;5046699;28;20191;-82
2021/11/08 12:50:08;;;;;;;6.97;3.33;;;;;;;;;;5039926;28;20197;-81
2021/11/08 12:52:40;;;;;;;7.30;4.00;;;;;;;;;;5040375;28;20205;-84
2021/11/08 12:55:09;;;;;;;9.40;4.18;;;;;;;;;;5045619;28;20721;-82
2021/11/08 12:57:36;;;;;;;7.03;3.28;;;;;;;;;;5051203;28;20215;-83
2021/11/08 13:00:07;;;;;;;6.90;3.88;;;;;;;;;;5050546;28;20617;-82
2021/11/08 13:02:39;;;;;;;11.50;4.60;;;;;;;;;;5042340;28;20198;-84
2021/11/08 13:05:08;;;;;;;7.65;3.42;;;;;;;;;;5048361;28;20187;-83
2021/11/08 13:07:36;;;;;;;5.38;3.70;;;;;;;;;;5051242;28;20194;-83
2021/11/08 13:10:05;;;;;;;6.45;3.90;;;;;;;;;;5061906;28;20190;-81
2021/11/08 13:12:33;;;;;;;8.82;3.60;;;;;;;;;;5041915;28;20191;-81
2021/11/08 13:15:01;;;;;;;5.03;3.13;;;;;;;;;;5049325;28;20206;-81
2021/11/08 13:17:30;;;;;;;6.82;3.45;;;;;;;;;;5039661;28;20234;-81
2021/11/08 13:20:02;;;;;;;6.55;3.50;;;;;;;;;;5046188;28;20195;-81
2021/11/08 13:22:30;;;;;;;7.20;3.55;;;;;;;;;;5045684;28;20194;-80
2021/11/08 13:24:58;;;;;;;6.82;3.30;;;;;;;;;;5045245;28;20199;-80
2021/11/08 13:27:25;;;;;;;2.60;2.30;;;;;;;;;;5030793;28;20208;-81
2021/11/08 13:29:56;;;;;;;7.03;3.67;;;;;;;;;;5050353;28;20658;-79
2021/11/08 13:32:24;;;;;;;8.90;3.45;;;;;;;;;;5053556;28;20191;-83
2021/11/08 13:34:52;;;;;;;10.80;4.20;;;;;;;;;;5048213;28;20392;-84
2021/11/08 13:37:22;;;;;;;7.18;2.75;;;;;;;;;;5040569;28;20458;-84
2021/11/08 13:39:51;;;;;;;8.45;3.25;;;;;;;;;;5038715;28;20191;-83
2021/11/08 13:42:20;;;;;;;4.55;3.10;;;;;;;;;;5043555;28;20615;-84
2021/11/08 13:44:47;;;;;;;7.45;3.88;;;;;;;;;;5050867;28;20203;-83
2021/11/08 13:47:14;;;;;;;6.63;2.30;;;;;;;;;;5046345;28;20201;-81
2021/11/08 13:49:41;;;;;;;7.72;2.97;;;;;;;;;;5052642;28;20191;-83
2021/11/08 13:52:09;;;;;;;12.00;3.67;;;;;;;;;;5048914;28;20192;-86
2021/11/08 13:54:38;;;;;;;4.95;2.42;;;;;;;;;;5048772;28;20195;-82
2021/11/08 13:57:06;;;;;;;10.43;3.47;;;;;;;;;;5047324;28;20581;-82
2021/11/08 13:59:34;;;;;;;6.63;2.97;;;;;;;;;;5051218;28;20219;-82
2021/11/08 14:02:02;;;;;;;6.38;3.08;;;;;;;;;;5044744;28;20194;-81
2021/11/08 14:04:34;;;;;;;3.85;2.42;;;;;;;;;;5050222;28;20198;-81
2021/11/08 14:07:02;;;;;;;5.45;2.83;;;;;;;;;;5045645;28;20200;-80
2021/11/08 14:09:29;;;;;;;8.40;3.15;;;;;;;;;;5036892;28;20195;-81
2021/11/08 14:12:00;;;;;;;8.30;2.63;;;;;;;;;;5045938;28;20561;-81
2021/11/08 14:14:29;;;;;;;7.25;2.83;;;;;;;;;;5052982;28;20183;-81
2021/11/08 14:17:07;;;;;;;5.95;3.20;;;;;;;;;;5048152;28;20215;-81
2021/11/08 14:19:35;;;;;;;4.57;2.22;;;;;;;;;;5051790;28;20632;-81
2021/11/08 14:22:02;;;;;;;6.20;2.15;;;;;;;;;;5046537;28;20188;-81
2021/11/08 14:24:32;;;;;;;4.70;2.33;;;;;;;;;;5051056;28;20202;-83
2021/11/08 14:27:01;;;;;;;4.15;2.28;;;;;;;;;;5047772;28;20195;-81
2021/11/08 14:29:30;;;;;;;3.38;2.38;;;;;;;;;;5033689;28;20206;-80
2021/11/08 14:31:59;;;;;;;7.72;2.40;;;;;;;;;;5039196;28;20202;-83
2021/11/08 14:34:30;;;;;;;3.92;2.35;;;;;;;;;;5054993;28;20194;-79
2021/11/08 14:36:57;;;;;;;5.90;2.30;;;;;;;;;;5053269;28;20215;-79
2021/11/08 14:39:27;;;;;;;5.07;2.78;;;;;;;;;;5052221;28;20253;-78
2021/11/08 14:41:55;;;;;;;5.95;2.88;;;;;;;;;;5044361;28;20227;-80
2021/11/08 14:44:25;;;;;;;6.25;2.50;;;;;;;;;;5052528;28;20585;-77
2021/11/08 14:46:54;;;;;;;9.27;2.53;;;;;;;;;;5047291;28;20210;-81
2021/11/08 14:49:22;;;;;;;5.95;2.90;;;;;;;;;;5052336;28;20218;-78
2021/11/08 14:51:50;;;;;;;5.43;2.83;;;;;;;;;;5046590;28;20588;-76
2021/11/08 14:54:18;;;;;;;4.22;2.30;;;;;;;;;;5034473;28;20210;-77
2021/11/08 14:56:51;;;;;;;8.55;2.75;;;;;;;;;;5043276;28;20227;-77
2021/11/08 14:59:25;;;;;;;2.85;1.88;;;;;;;;;;5042503;28;20217;-77
2021/11/08 15:02:01;;;;;;;3.67;2.20;;;;;;;;;;5060903;28;20203;-79
2021/11/08 15:04:30;;;;;;;2.50;1.73;;;;;;;;;;5067169;28;20194;-79
2021/11/08 15:07:01;;;;;;;4.82;2.40;;;;;;;;;;5072244;28;20233;-77
2021/11/08 15:09:38;;;;;;;5.25;2.22;;;;;;;;;;5057393;22;20220;-78
2021/11/08 15:12:13;;;;;;;4.93;1.92;;;;;;;;;;5032235;28;20206;-76
2021/11/08 15:14:46;;;;;;;3.92;1.98;;;;;;;;;;5038545;28;20203;-77
2021/11/08 15:17:15;;;;;;;3.30;2.03;;;;;;;;;;5026111;28;20223;-74
2021/11/08 15:19:46;;;;;;;6.18;2.40;;;;;;;;;;5028492;28;20219;-78
2021/11/08 15:22:14;;;;;;;7.90;2.35;;;;;;;;;;5030630;28;20714;-76
2021/11/08 15:24:41;;;;;;;5.90;2.50;;;;;;;;;;5026731;28;20200;-78
2021/11/08 15:27:08;;;;;;;5.82;2.15;;;;;;;;;;5029025;28;20204;-78
2021/11/08 15:29:36;;;;;;;4.47;1.65;;;;;;;;;;5027785;28;20199;-76
2021/11/08 15:32:12;;;;;;;14.68;3.95;;;;;;;;;;5024342;28;20196;-78
2021/11/08 15:34:42;;;;;;;10.20;3.47;;;;;;;;;;5028891;28;20227;-77
2021/11/08 15:37:12;;;;;;;11.18;4.75;;;;;;;;;;5031519;28;20211;-78
2021/11/08 15:39:41;;;;;;;9.48;3.78;;;;;;;;;;5026587;28;20204;-77
2021/11/08 15:42:09;;;;;;;12.55;2.63;;;;;;;;;;5014862;28;20208;-79
2021/11/08 15:44:37;;;;;;;6.25;2.45;;;;;;;;;;5024206;28;20204;-78
2021/11/08 15:47:05;;;;;;;11.77;2.40;;;;;;;;;;5030627;28;20195;-78
2021/11/08 15:49:32;;;;;;;10.98;3.55;;;;;;;;;;5040247;28;20564;-78
2021/11/08 15:52:01;;;;;;;7.47;3.08;;;;;;;;;;5022069;28;20655;-78
2021/11/08 15:54:28;;;;;;;7.80;3.15;;;;;;;;;;5018057;28;20203;-78
2021/11/08 15:56:57;;;;;;;2.88;1.70;;;;;;;;;;5019989;28;20207;-78
2021/11/08 15:59:25;;;;;;;7.25;2.25;;;;;;;;;;5023902;28;20226;-77
2021/11/08 16:01:52;;;;;;;6.78;2.70;;;;;;;;;;5010450;28;20203;-78
2021/11/08 16:04:19;;;;;;;12.90;3.53;;;;;;;;;;5009752;28;20212;-77
2021/11/08 16:06:47;;;;;;;11.68;2.70;;;;;;;;;;5009863;28;20207;-77
2021/11/08 16:09:15;;;;;;;5.25;2.38;;;;;;;;;;5007628;28;20208;-77
2021/11/08 16:11:42;;;;;;;5.80;1.90;;;;;;;;;;5009870;28;20200;-78